Terminal Aerodrome Forecast
Issued by NWS

Home | Current Version | Previous Version | Text Only | Print | Product List | Glossary On
Versions: 1 2 3 4 5 6 7 8 9 10 11 12 13 14 15 16 17 18 19 20 21 22 23 24 25 26 27 28
000
FTUS46 KOTX 182334
TAFCOE
TAF
KCOE 182334Z 1900/1924 02022KT 3SM -SN BLSN SCT030 OVC080
      TEMPO 1900/1901 1 1/2SM -SHSN BLSN
     FM190100 02022G29KT 4SM BLSN VCSH BKN080
     FM190300 02022G28KT 6SM BLSN BKN080
     FM190900 03020KT 2SM BR SCT250
     FM191200 02012KT P6SM SKC=

USA.gov is the U.S. government's official web portal to all federal, state and local government web resources and services.